Moveon — CQBR — position and weather

sailwx.info

Track history (hours):
 
Tides and Currents Weather Stations Pressure Air Temp Water Temp Dewpoint Dewpoint Depression Visibility Wind Speed Wind Dir Waves Ship Positions

Moveon

Last reported at 2018-Feb-18 06:08 UTC. Time now 2018-Feb-19 08:22 UTC.
Position N 37°25' W 000°48'.

Length 134 m; draft 8.3 m.

Type: Ship. MMSI: 255805846.

Date/timePositionNaut miles runAvg speedWind from/ knotsBaromVisibWave heightAir tempDewpointWater temp
2018-Feb-18 06:08N 37°25' W 000°48'214.8
2018-Feb-18 06:00N 37°26' W 000°46'1314.2
2018-Feb-18 05:07N 37°34' W 000°34'813.7
2018-Feb-18 04:31N 37°41' W 000°28'013.4
2018-Feb-18 04:30N 37°41' W 000°28'10412.0
2018-Feb-17 19:50N 39°24' W 000°15'411.5
2018-Feb-17 19:30N 39°26' W 000°19'2 0.2
2018-Feb-17 10:14N 39°26' W 000°17'14915.5
2018-Feb-17 00:37N 41°10' E 002°03'216.2
2018-Feb-17 00:27N 41°12' E 002°05'715.3
2018-Feb-17 00:01N 41°18' E 002°11'2 3.1
2018-Feb-16 23:29N 41°19' E 002°09'0 0.0
2018-Feb-16 22:59N 41°19' E 002°09'0 0.0
2018-Feb-16 22:31N 41°19' E 002°09'0 0.0
2018-Feb-16 22:01N 41°19' E 002°09'0 0.0
2018-Feb-16 21:31N 41°19' E 002°09'0 0.0
2018-Feb-16 21:00N 41°19' E 002°09'0 0.0
2018-Feb-16 20:31N 41°19' E 002°09'0 0.0
2018-Feb-16 20:01N 41°19' E 002°09'0 0.0
2018-Feb-16 19:30N 41°19' E 002°09'0 0.0
2018-Feb-16 19:01N 41°19' E 002°09'0 0.0
2018-Feb-16 18:30N 41°19' E 002°09'0 0.0
2018-Feb-16 18:00N 41°19' E 002°09'0 0.0
2018-Feb-16 17:31N 41°19' E 002°09'0 0.0
2018-Feb-16 17:01N 41°19' E 002°09'0 0.0
2018-Feb-16 16:31N 41°19' E 002°09'0 0.0
2018-Feb-16 16:01N 41°19' E 002°09'0 0.0
2018-Feb-16 15:31N 41°19' E 002°09'0 0.0
2018-Feb-16 15:00N 41°19' E 002°09'0 0.0
2018-Feb-16 14:30N 41°19' E 002°09'0 0.0
2018-Feb-16 14:00N 41°19' E 002°09'0 0.0
2018-Feb-16 13:31N 41°19' E 002°09'0 0.0
2018-Feb-16 13:01N 41°19' E 002°09'0 0.0
2018-Feb-16 12:31N 41°19' E 002°09'0 0.0
2018-Feb-16 12:00N 41°19' E 002°09'0 0.0
2018-Feb-16 11:30N 41°19' E 002°09'0 0.0
2018-Feb-16 11:01N 41°19' E 002°09'0 0.0
2018-Feb-16 10:30N 41°19' E 002°09'0 0.0
2018-Feb-16 10:00N 41°19' E 002°09'0 0.0
2018-Feb-16 09:31N 41°19' E 002°09'0 0.0
2018-Feb-16 09:01N 41°19' E 002°09'0 0.0
2018-Feb-16 08:31N 41°19' E 002°09'0 0.0
2018-Feb-16 08:01N 41°19' E 002°09'0 0.0
2018-Feb-16 07:31N 41°19' E 002°09'0 0.0
2018-Feb-16 07:01N 41°19' E 002°09'0 0.0
2018-Feb-16 06:30N 41°19' E 002°09'0 0.0
2018-Feb-16 06:01N 41°19' E 002°09'2 4.4
2018-Feb-16 05:30N 41°17' E 002°11'1 2.0
2018-Feb-16 05:01N 41°16' E 002°11'4 7.2
2018-Feb-16 04:30N 41°13' E 002°09'815.7
2018-Feb-16 04:00N 41°06' E 002°05'4 5.9
2018-Feb-16 03:20N 41°03' E 002°02'1 1.3
2018-Feb-16 02:53N 41°03' E 002°01'1 1.5
2018-Feb-16 02:26N 41°03' E 002°00'2 1.6
2018-Feb-16 01:23N 41°04' E 001°58'1 1.6
2018-Feb-16 00:47N 41°04' E 001°57'1 1.6
2018-Feb-16 00:25N 41°04' E 001°56'1 1.6
2018-Feb-15 23:59N 41°04' E 001°55'1 1.4
2018-Feb-15 23:30N 41°05' E 001°54'1 1.4
2018-Feb-15 23:00N 41°05' E 001°53'1 1.3
2018-Feb-15 22:28N 41°05' E 001°52'1 1.3
2018-Feb-15 22:00N 41°05' E 001°52'1 1.5
2018-Feb-15 21:27N 41°06' E 001°51'3 6.6
2018-Feb-15 20:59N 41°06' E 001°47'613.2
2018-Feb-15 20:30N 41°05' E 001°38'124 5.2
2018-Feb-14 20:41N 39°32' W 000°09'312.5
2018-Feb-14 20:27N 39°30' W 000°11'7 9.9
2018-Feb-14 19:46N 39°26' W 000°19'81 3.6
2018-Feb-13 21:16N 38°06' W 000°04'414.0
2018-Feb-13 21:00N 38°03' W 000°06'2214.3
2018-Feb-13 19:28N 37°45' W 000°21'714.4
2018-Feb-13 19:00N 37°39' W 000°26'1614.6
2018-Feb-13 17:55N 37°27' W 000°39'614.1
2018-Feb-13 17:30N 37°24' W 000°45'814.0
2018-Feb-13 16:58N 37°18' W 000°52'22414.3
2018-Feb-13 01:14N 35°60' W 005°13'417.1
2018-Feb-13 01:00N 35°59' W 005°18'816.9
2018-Feb-13 00:30N 35°57' W 005°29'19911.9
2018-Feb-12 07:46N 37°34' W 009°06'415.9
2018-Feb-12 07:30N 37°38' W 009°03'816.1
2018-Feb-12 07:00N 37°45' W 008°58'815.8
2018-Feb-12 06:30N 37°51' W 008°53'5 9.9
2018-Feb-12 06:00N 37°56' W 008°51'0 0.0
2018-Feb-12 05:30N 37°56' W 008°51'0 0.0
2018-Feb-12 05:00N 37°56' W 008°51'0 0.0
2018-Feb-12 04:30N 37°56' W 008°51'0 0.0
2018-Feb-12 04:00N 37°56' W 008°51'0 0.0
2018-Feb-12 03:30N 37°56' W 008°51'0 0.0
2018-Feb-12 03:00N 37°56' W 008°51'0 0.0
2018-Feb-12 02:30N 37°56' W 008°51'0 0.0
2018-Feb-12 02:00N 37°56' W 008°51'0 0.0
2018-Feb-12 01:30N 37°56' W 008°51'0 0.0
2018-Feb-12 01:00N 37°56' W 008°51'0 0.0
2018-Feb-12 00:30N 37°56' W 008°51'0 0.0
2018-Feb-12 00:00N 37°56' W 008°51'0 0.0
2018-Feb-11 23:30N 37°56' W 008°51'1 2.2
2018-Feb-11 23:01N 37°55' W 008°50'4 8.5
2018-Feb-11 22:31N 37°52' W 008°54'610.7
2018-Feb-11 21:59N 37°49' W 008°60'1 1.1
2018-Feb-11 21:30N 37°49' W 008°60'1 1.1
2018-Feb-11 21:01N 37°50' W 009°00'1 1.0
2018-Feb-11 20:30N 37°50' W 009°01'2 3.8
2018-Feb-11 20:00N 37°48' W 009°01'611.3
2018-Feb-11 19:31N 37°43' W 009°03'611.1
2018-Feb-11 19:00N 37°38' W 009°07'55113.8
2018-Feb-10 03:01N 29°07' W 013°13'415.5
2018-Feb-10 02:45N 29°04' W 013°16'415.3
2018-Feb-10 02:30N 29°02' W 013°20'815.2
2018-Feb-10 02:00N 28°59' W 013°28'4 7.3
2018-Feb-10 01:30N 28°58' W 013°32'0 0.0
2018-Feb-10 01:00N 28°58' W 013°32'0 0.0
2018-Feb-10 00:30N 28°58' W 013°32'0 0.0
2018-Feb-09 23:54N 28°58' W 013°32'0 0.0
2018-Feb-09 23:24N 28°58' W 013°32'0 0.0
2018-Feb-09 23:00N 28°58' W 013°32'0 0.1
2018-Feb-09 22:46N 28°58' W 013°32'10 3.8
2018-Feb-09 20:00N 28°49' W 013°37'138 6.8
2018-Feb-08 23:30N 28°28' W 016°13'2 0.9
2018-Feb-08 21:30N 28°29' W 016°14'0 0.0
2018-Feb-08 19:30N 28°29' W 016°14'0 0.0
2018-Feb-08 18:30N 28°29' W 016°14'0 0.0
2018-Feb-08 18:00N 28°29' W 016°14'0 0.0
2018-Feb-08 16:00N 28°29' W 016°14'23 2.8
2018-Feb-08 08:00N 28°19' W 015°51'  
Track history (hours):
 
Tides and Currents Weather Stations Pressure Air Temp Water Temp Dewpoint Dewpoint Depression Visibility Wind Speed Wind Dir Waves Ship Positions

Moveon

Last reported at 2018-Feb-18 06:08 UTC. Time now 2018-Feb-19 08:22 UTC.
Position N 37°25' W 000°48'.

Length 134 m; draft 8.3 m.

Type: Ship. MMSI: 255805846.

Date/timePositionNaut miles runAvg speedWind from/ knotsBaromVisibWave heightAir tempDewpointWater temp
2018-Feb-18 06:08N 37°25' W 000°48'214.8
2018-Feb-18 06:00N 37°26' W 000°46'1314.2
2018-Feb-18 05:07N 37°34' W 000°34'813.7
2018-Feb-18 04:31N 37°41' W 000°28'013.4
2018-Feb-18 04:30N 37°41' W 000°28'10412.0
2018-Feb-17 19:50N 39°24' W 000°15'411.5
2018-Feb-17 19:30N 39°26' W 000°19'2 0.2
2018-Feb-17 10:14N 39°26' W 000°17'14915.5
2018-Feb-17 00:37N 41°10' E 002°03'216.2
2018-Feb-17 00:27N 41°12' E 002°05'715.3
2018-Feb-17 00:01N 41°18' E 002°11'2 3.1
2018-Feb-16 23:29N 41°19' E 002°09'0 0.0
2018-Feb-16 22:59N 41°19' E 002°09'0 0.0
2018-Feb-16 22:31N 41°19' E 002°09'0 0.0
2018-Feb-16 22:01N 41°19' E 002°09'0 0.0
2018-Feb-16 21:31N 41°19' E 002°09'0 0.0
2018-Feb-16 21:00N 41°19' E 002°09'0 0.0
2018-Feb-16 20:31N 41°19' E 002°09'0 0.0
2018-Feb-16 20:01N 41°19' E 002°09'0 0.0
2018-Feb-16 19:30N 41°19' E 002°09'0 0.0
2018-Feb-16 19:01N 41°19' E 002°09'0 0.0
2018-Feb-16 18:30N 41°19' E 002°09'0 0.0
2018-Feb-16 18:00N 41°19' E 002°09'0 0.0
2018-Feb-16 17:31N 41°19' E 002°09'0 0.0
2018-Feb-16 17:01N 41°19' E 002°09'0 0.0
2018-Feb-16 16:31N 41°19' E 002°09'0 0.0
2018-Feb-16 16:01N 41°19' E 002°09'0 0.0
2018-Feb-16 15:31N 41°19' E 002°09'0 0.0
2018-Feb-16 15:00N 41°19' E 002°09'0 0.0
2018-Feb-16 14:30N 41°19' E 002°09'0 0.0
2018-Feb-16 14:00N 41°19' E 002°09'0 0.0
2018-Feb-16 13:31N 41°19' E 002°09'0 0.0
2018-Feb-16 13:01N 41°19' E 002°09'0 0.0
2018-Feb-16 12:31N 41°19' E 002°09'0 0.0
2018-Feb-16 12:00N 41°19' E 002°09'0 0.0
2018-Feb-16 11:30N 41°19' E 002°09'0 0.0
2018-Feb-16 11:01N 41°19' E 002°09'0 0.0
2018-Feb-16 10:30N 41°19' E 002°09'0 0.0
2018-Feb-16 10:00N 41°19' E 002°09'0 0.0
2018-Feb-16 09:31N 41°19' E 002°09'0 0.0
2018-Feb-16 09:01N 41°19' E 002°09'0 0.0
2018-Feb-16 08:31N 41°19' E 002°09'0 0.0
2018-Feb-16 08:01N 41°19' E 002°09'0 0.0
2018-Feb-16 07:31N 41°19' E 002°09'0 0.0
2018-Feb-16 07:01N 41°19' E 002°09'0 0.0
2018-Feb-16 06:30N 41°19' E 002°09'0 0.0
2018-Feb-16 06:01N 41°19' E 002°09'2 4.4
2018-Feb-16 05:30N 41°17' E 002°11'1 2.0
2018-Feb-16 05:01N 41°16' E 002°11'4 7.2
2018-Feb-16 04:30N 41°13' E 002°09'815.7
2018-Feb-16 04:00N 41°06' E 002°05'4 5.9
2018-Feb-16 03:20N 41°03' E 002°02'1 1.3
2018-Feb-16 02:53N 41°03' E 002°01'1 1.5
2018-Feb-16 02:26N 41°03' E 002°00'2 1.6
2018-Feb-16 01:23N 41°04' E 001°58'1 1.6
2018-Feb-16 00:47N 41°04' E 001°57'1 1.6
2018-Feb-16 00:25N 41°04' E 001°56'1 1.6
2018-Feb-15 23:59N 41°04' E 001°55'1 1.4
2018-Feb-15 23:30N 41°05' E 001°54'1 1.4
2018-Feb-15 23:00N 41°05' E 001°53'1 1.3
2018-Feb-15 22:28N 41°05' E 001°52'1 1.3
2018-Feb-15 22:00N 41°05' E 001°52'1 1.5
2018-Feb-15 21:27N 41°06' E 001°51'3 6.6
2018-Feb-15 20:59N 41°06' E 001°47'613.2
2018-Feb-15 20:30N 41°05' E 001°38'124 5.2
2018-Feb-14 20:41N 39°32' W 000°09'312.5
2018-Feb-14 20:27N 39°30' W 000°11'7 9.9
2018-Feb-14 19:46N 39°26' W 000°19'81 3.6
2018-Feb-13 21:16N 38°06' W 000°04'414.0
2018-Feb-13 21:00N 38°03' W 000°06'2214.3
2018-Feb-13 19:28N 37°45' W 000°21'714.4
2018-Feb-13 19:00N 37°39' W 000°26'1614.6
2018-Feb-13 17:55N 37°27' W 000°39'614.1
2018-Feb-13 17:30N 37°24' W 000°45'814.0
2018-Feb-13 16:58N 37°18' W 000°52'22414.3
2018-Feb-13 01:14N 35°60' W 005°13'417.1
2018-Feb-13 01:00N 35°59' W 005°18'816.9
2018-Feb-13 00:30N 35°57' W 005°29'19911.9
2018-Feb-12 07:46N 37°34' W 009°06'415.9
2018-Feb-12 07:30N 37°38' W 009°03'816.1
2018-Feb-12 07:00N 37°45' W 008°58'815.8
2018-Feb-12 06:30N 37°51' W 008°53'5 9.9
2018-Feb-12 06:00N 37°56' W 008°51'0 0.0
2018-Feb-12 05:30N 37°56' W 008°51'0 0.0
2018-Feb-12 05:00N 37°56' W 008°51'0 0.0
2018-Feb-12 04:30N 37°56' W 008°51'0 0.0
2018-Feb-12 04:00N 37°56' W 008°51'0 0.0
2018-Feb-12 03:30N 37°56' W 008°51'0 0.0
2018-Feb-12 03:00N 37°56' W 008°51'0 0.0
2018-Feb-12 02:30N 37°56' W 008°51'0 0.0
2018-Feb-12 02:00N 37°56' W 008°51'0 0.0
2018-Feb-12 01:30N 37°56' W 008°51'0 0.0
2018-Feb-12 01:00N 37°56' W 008°51'0 0.0
2018-Feb-12 00:30N 37°56' W 008°51'0 0.0
2018-Feb-12 00:00N 37°56' W 008°51'0 0.0
2018-Feb-11 23:30N 37°56' W 008°51'1 2.2
2018-Feb-11 23:01N 37°55' W 008°50'4 8.5
2018-Feb-11 22:31N 37°52' W 008°54'610.7
2018-Feb-11 21:59N 37°49' W 008°60'1 1.1
2018-Feb-11 21:30N 37°49' W 008°60'1 1.1
2018-Feb-11 21:01N 37°50' W 009°00'1 1.0
2018-Feb-11 20:30N 37°50' W 009°01'2 3.8
2018-Feb-11 20:00N 37°48' W 009°01'611.3
2018-Feb-11 19:31N 37°43' W 009°03'611.1
2018-Feb-11 19:00N 37°38' W 009°07'55113.8
2018-Feb-10 03:01N 29°07' W 013°13'415.5
2018-Feb-10 02:45N 29°04' W 013°16'415.3
2018-Feb-10 02:30N 29°02' W 013°20'815.2
2018-Feb-10 02:00N 28°59' W 013°28'4 7.3
2018-Feb-10 01:30N 28°58' W 013°32'0 0.0
2018-Feb-10 01:00N 28°58' W 013°32'0 0.0
2018-Feb-10 00:30N 28°58' W 013°32'0 0.0
2018-Feb-09 23:54N 28°58' W 013°32'0 0.0
2018-Feb-09 23:24N 28°58' W 013°32'0 0.0
2018-Feb-09 23:00N 28°58' W 013°32'0 0.1
2018-Feb-09 22:46N 28°58' W 013°32'10 3.8
2018-Feb-09 20:00N 28°49' W 013°37'138 6.8
2018-Feb-08 23:30N 28°28' W 016°13'2 0.9
2018-Feb-08 21:30N 28°29' W 016°14'0 0.0
2018-Feb-08 19:30N 28°29' W 016°14'0 0.0
2018-Feb-08 18:30N 28°29' W 016°14'0 0.0
2018-Feb-08 18:00N 28°29' W 016°14'0 0.0
2018-Feb-08 16:00N 28°29' W 016°14'23 2.8
2018-Feb-08 08:00N 28°19' W 015°51'  

Dump ship's entire track history